sensor_id;sensor_type;location;lat;lon;timestamp;P1;durP1;ratioP1;P2;durP2;ratioP2
22675;SDS011;12521;43.310;21.876;2023-07-13T00:04:08;9.0;;;8.0;;
22675;SDS011;12521;43.310;21.876;2023-07-13T00:08:45;9.0;;;8.0;;
22675;SDS011;12521;43.310;21.876;2023-07-13T00:13:22;9.0;;;8.0;;
22675;SDS011;12521;43.310;21.876;2023-07-13T00:17:59;10.0;;;8.0;;
22675;SDS011;12521;43.310;21.876;2023-07-13T00:22:35;10.0;;;8.0;;
22675;SDS011;12521;43.310;21.876;2023-07-13T00:27:14;11.0;;;8.0;;
22675;SDS011;12521;43.310;21.876;2023-07-13T00:31:50;11.0;;;8.0;;
22675;SDS011;12521;43.310;21.876;2023-07-13T00:36:27;12.0;;;9.0;;
22675;SDS011;12521;43.310;21.876;2023-07-13T00:41:04;12.0;;;9.0;;
22675;SDS011;12521;43.310;21.876;2023-07-13T00:46:46;12.0;;;8.0;;
22675;SDS011;12521;43.310;21.876;2023-07-13T00:51:30;12.0;;;8.0;;
22675;SDS011;12521;43.310;21.876;2023-07-13T00:56:18;11.0;;;8.0;;
22675;SDS011;12521;43.310;21.876;2023-07-13T01:00:56;11.0;;;8.0;;
22675;SDS011;12521;43.310;21.876;2023-07-13T01:05:35;10.0;;;8.0;;
22675;SDS011;12521;43.310;21.876;2023-07-13T01:10:14;10.0;;;8.0;;
22675;SDS011;12521;43.310;21.876;2023-07-13T01:14:58;8.0;;;7.0;;
22675;SDS011;12521;43.310;21.876;2023-07-13T01:20:12;8.0;;;7.0;;
22675;SDS011;12521;43.310;21.876;2023-07-13T01:24:49;9.0;;;8.0;;
22675;SDS011;12521;43.310;21.876;2023-07-13T01:29:27;9.0;;;8.0;;
22675;SDS011;12521;43.310;21.876;2023-07-13T01:34:04;10.0;;;8.0;;
22675;SDS011;12521;43.310;21.876;2023-07-13T01:38:40;10.0;;;8.0;;
22675;SDS011;12521;43.310;21.876;2023-07-13T01:43:18;10.0;;;8.0;;
22675;SDS011;12521;43.310;21.876;2023-07-13T01:47:56;10.0;;;8.0;;
22675;SDS011;12521;43.310;21.876;2023-07-13T01:52:33;10.0;;;8.0;;
22675;SDS011;12521;43.310;21.876;2023-07-13T01:57:10;10.0;;;7.0;;
22675;SDS011;12521;43.310;21.876;2023-07-13T02:01:47;10.0;;;7.0;;
22675;SDS011;12521;43.310;21.876;2023-07-13T02:06:24;10.0;;;7.0;;
22675;SDS011;12521;43.310;21.876;2023-07-13T02:11:02;10.0;;;7.0;;
22675;SDS011;12521;43.310;21.876;2023-07-13T02:15:39;9.0;;;7.0;;
22675;SDS011;12521;43.310;21.876;2023-07-13T02:20:15;9.0;;;7.0;;
22675;SDS011;12521;43.310;21.876;2023-07-13T02:24:52;9.0;;;8.0;;
22675;SDS011;12521;43.310;21.876;2023-07-13T02:29:29;9.0;;;8.0;;
22675;SDS011;12521;43.310;21.876;2023-07-13T02:34:06;9.0;;;8.0;;
22675;SDS011;12521;43.310;21.876;2023-07-13T02:38:43;9.0;;;8.0;;
22675;SDS011;12521;43.310;21.876;2023-07-13T02:43:20;9.0;;;8.0;;
22675;SDS011;12521;43.310;21.876;2023-07-13T02:47:57;10.0;;;8.0;;
22675;SDS011;12521;43.310;21.876;2023-07-13T02:52:34;10.0;;;8.0;;
22675;SDS011;12521;43.310;21.876;2023-07-13T02:57:11;10.0;;;8.0;;
22675;SDS011;12521;43.310;21.876;2023-07-13T03:01:47;10.0;;;8.0;;
22675;SDS011;12521;43.310;21.876;2023-07-13T03:06:24;10.0;;;8.0;;
22675;SDS011;12521;43.310;21.876;2023-07-13T03:11:04;10.0;;;8.0;;
22675;SDS011;12521;43.310;21.876;2023-07-13T03:15:48;10.0;;;9.0;;
22675;SDS011;12521;43.310;21.876;2023-07-13T03:20:24;10.0;;;9.0;;
22675;SDS011;12521;43.310;21.876;2023-07-13T03:25:00;9.0;;;8.0;;
22675;SDS011;12521;43.310;21.876;2023-07-13T03:29:37;9.0;;;8.0;;
22675;SDS011;12521;43.310;21.876;2023-07-13T03:34:13;8.0;;;7.0;;
22675;SDS011;12521;43.310;21.876;2023-07-13T03:38:51;8.0;;;7.0;;
22675;SDS011;12521;43.310;21.876;2023-07-13T03:43:36;8.0;;;7.0;;
22675;SDS011;12521;43.310;21.876;2023-07-13T03:48:13;8.0;;;8.0;;
22675;SDS011;12521;43.310;21.876;2023-07-13T03:52:51;8.0;;;8.0;;
22675;SDS011;12521;43.310;21.876;2023-07-13T03:57:28;9.0;;;8.0;;
22675;SDS011;12521;43.310;21.876;2023-07-13T04:02:05;9.0;;;8.0;;
22675;SDS011;12521;43.310;21.876;2023-07-13T04:06:43;9.0;;;8.0;;
22675;SDS011;12521;43.310;21.876;2023-07-13T04:11:24;9.0;;;8.0;;
22675;SDS011;12521;43.310;21.876;2023-07-13T04:16:08;9.0;;;7.0;;
22675;SDS011;12521;43.310;21.876;2023-07-13T04:20:46;9.0;;;7.0;;
22675;SDS011;12521;43.310;21.876;2023-07-13T04:25:27;9.0;;;8.0;;
22675;SDS011;12521;43.310;21.876;2023-07-13T04:30:06;9.0;;;8.0;;
22675;SDS011;12521;43.310;21.876;2023-07-13T04:34:46;9.0;;;8.0;;
22675;SDS011;12521;43.310;21.876;2023-07-13T04:39:23;9.0;;;8.0;;
22675;SDS011;12521;43.310;21.876;2023-07-13T04:43:59;12.0;;;8.0;;
22675;SDS011;12521;43.310;21.876;2023-07-13T04:48:36;12.0;;;8.0;;
22675;SDS011;12521;43.310;21.876;2023-07-13T04:53:14;12.0;;;8.0;;
22675;SDS011;12521;43.310;21.876;2023-07-13T04:57:51;14.0;;;9.0;;
22675;SDS011;12521;43.310;21.876;2023-07-13T05:02:27;14.0;;;9.0;;
22675;SDS011;12521;43.310;21.876;2023-07-13T05:07:05;12.0;;;8.0;;
22675;SDS011;12521;43.310;21.876;2023-07-13T05:11:43;12.0;;;8.0;;
22675;SDS011;12521;43.310;21.876;2023-07-13T05:16:19;10.0;;;7.0;;
22675;SDS011;12521;43.310;21.876;2023-07-13T05:20:59;10.0;;;7.0;;
22675;SDS011;12521;43.310;21.876;2023-07-13T05:25:42;10.0;;;8.0;;
22675;SDS011;12521;43.310;21.876;2023-07-13T05:30:18;10.0;;;8.0;;
22675;SDS011;12521;43.310;21.876;2023-07-13T05:34:55;10.0;;;8.0;;
22675;SDS011;12521;43.310;21.876;2023-07-13T05:39:31;10.0;;;8.0;;
22675;SDS011;12521;43.310;21.876;2023-07-13T05:44:08;9.0;;;8.0;;
22675;SDS011;12521;43.310;21.876;2023-07-13T05:48:44;9.0;;;8.0;;
22675;SDS011;12521;43.310;21.876;2023-07-13T05:53:22;9.0;;;8.0;;
22675;SDS011;12521;43.310;21.876;2023-07-13T05:57:59;8.0;;;7.0;;
22675;SDS011;12521;43.310;21.876;2023-07-13T06:02:37;8.0;;;7.0;;
22675;SDS011;12521;43.310;21.876;2023-07-13T06:07:14;9.0;;;8.0;;
22675;SDS011;12521;43.310;21.876;2023-07-13T06:11:51;9.0;;;8.0;;
22675;SDS011;12521;43.310;21.876;2023-07-13T06:16:27;10.0;;;8.0;;
22675;SDS011;12521;43.310;21.876;2023-07-13T06:21:07;10.0;;;8.0;;
22675;SDS011;12521;43.310;21.876;2023-07-13T06:25:58;11.0;;;8.0;;
22675;SDS011;12521;43.310;21.876;2023-07-13T06:30:38;11.0;;;8.0;;
22675;SDS011;12521;43.310;21.876;2023-07-13T06:35:15;12.0;;;8.0;;
22675;SDS011;12521;43.310;21.876;2023-07-13T06:39:52;12.0;;;8.0;;
22675;SDS011;12521;43.310;21.876;2023-07-13T06:44:29;12.0;;;8.0;;
22675;SDS011;12521;43.310;21.876;2023-07-13T06:49:08;12.0;;;8.0;;
22675;SDS011;12521;43.310;21.876;2023-07-13T06:53:46;12.0;;;8.0;;
22675;SDS011;12521;43.310;21.876;2023-07-13T06:58:23;11.0;;;8.0;;
22675;SDS011;12521;43.310;21.876;2023-07-13T07:03:01;11.0;;;8.0;;
22675;SDS011;12521;43.310;21.876;2023-07-13T07:07:38;12.0;;;8.0;;
22675;SDS011;12521;43.310;21.876;2023-07-13T07:12:15;12.0;;;8.0;;
22675;SDS011;12521;43.310;21.876;2023-07-13T07:16:51;12.0;;;9.0;;
22675;SDS011;12521;43.310;21.876;2023-07-13T07:21:28;12.0;;;9.0;;
22675;SDS011;12521;43.310;21.876;2023-07-13T07:26:04;14.0;;;10.0;;
22675;SDS011;12521;43.310;21.876;2023-07-13T07:30:42;14.0;;;10.0;;
22675;SDS011;12521;43.310;21.876;2023-07-13T07:35:18;16.0;;;10.0;;
22675;SDS011;12521;43.310;21.876;2023-07-13T07:39:55;16.0;;;10.0;;
22675;SDS011;12521;43.310;21.876;2023-07-13T07:44:31;14.0;;;10.0;;
22675;SDS011;12521;43.310;21.876;2023-07-13T07:49:09;14.0;;;10.0;;
22675;SDS011;12521;43.310;21.876;2023-07-13T07:53:47;14.0;;;10.0;;
22675;SDS011;12521;43.310;21.876;2023-07-13T07:58:24;12.0;;;9.0;;
22675;SDS011;12521;43.310;21.876;2023-07-13T08:03:01;12.0;;;9.0;;
22675;SDS011;12521;43.310;21.876;2023-07-13T08:07:39;12.0;;;8.0;;
22675;SDS011;12521;43.310;21.876;2023-07-13T08:12:16;12.0;;;8.0;;
22675;SDS011;12521;43.310;21.876;2023-07-13T08:16:53;12.0;;;7.0;;
22675;SDS011;12521;43.310;21.876;2023-07-13T08:21:29;12.0;;;7.0;;
22675;SDS011;12521;43.310;21.876;2023-07-13T08:26:06;12.0;;;8.0;;
22675;SDS011;12521;43.310;21.876;2023-07-13T08:30:45;12.0;;;8.0;;
22675;SDS011;12521;43.310;21.876;2023-07-13T08:35:21;12.0;;;9.0;;
22675;SDS011;12521;43.310;21.876;2023-07-13T08:39:58;12.0;;;9.0;;
22675;SDS011;12521;43.310;21.876;2023-07-13T08:44:49;10.0;;;8.0;;
22675;SDS011;12521;43.310;21.876;2023-07-13T08:49:47;10.0;;;8.0;;
22675;SDS011;12521;43.310;21.876;2023-07-13T08:54:32;9.0;;;8.0;;
22675;SDS011;12521;43.310;21.876;2023-07-13T08:59:25;9.0;;;8.0;;
22675;SDS011;12521;43.310;21.876;2023-07-13T09:04:16;10.0;;;8.0;;
22675;SDS011;12521;43.310;21.876;2023-07-13T09:09:37;10.0;;;8.0;;
22675;SDS011;12521;43.310;21.876;2023-07-13T09:15:06;12.0;;;7.0;;
22675;SDS011;12521;43.310;21.876;2023-07-13T09:20:24;12.0;;;7.0;;
22675;SDS011;12521;43.310;21.876;2023-07-13T09:25:32;10.0;;;7.0;;
22675;SDS011;12521;43.310;21.876;2023-07-13T09:30:34;10.0;;;7.0;;
22675;SDS011;12521;43.310;21.876;2023-07-13T09:35:41;9.0;;;7.0;;
22675;SDS011;12521;43.310;21.876;2023-07-13T09:40:27;9.0;;;7.0;;
22675;SDS011;12521;43.310;21.876;2023-07-13T09:45:51;9.0;;;7.0;;
22675;SDS011;12521;43.310;21.876;2023-07-13T09:50:29;9.0;;;7.0;;
22675;SDS011;12521;43.310;21.876;2023-07-13T09:55:25;9.0;;;7.0;;
22675;SDS011;12521;43.310;21.876;2023-07-13T10:00:22;9.0;;;7.0;;
22675;SDS011;12521;43.310;21.876;2023-07-13T10:05:13;10.0;;;8.0;;
22675;SDS011;12521;43.310;21.876;2023-07-13T10:09:52;10.0;;;8.0;;
22675;SDS011;12521;43.310;21.876;2023-07-13T10:14:29;11.0;;;8.0;;
22675;SDS011;12521;43.310;21.876;2023-07-13T10:19:15;11.0;;;8.0;;
22675;SDS011;12521;43.310;21.876;2023-07-13T10:24:15;11.0;;;8.0;;
22675;SDS011;12521;43.310;21.876;2023-07-13T10:29:10;10.0;;;8.0;;
22675;SDS011;12521;43.310;21.876;2023-07-13T10:33:55;10.0;;;8.0;;
22675;SDS011;12521;43.310;21.876;2023-07-13T10:38:33;10.0;;;8.0;;
22675;SDS011;12521;43.310;21.876;2023-07-13T10:43:23;10.0;;;8.0;;
22675;SDS011;12521;43.310;21.876;2023-07-13T10:48:18;10.0;;;8.0;;
22675;SDS011;12521;43.310;21.876;2023-07-13T10:53:03;10.0;;;8.0;;
22675;SDS011;12521;43.310;21.876;2023-07-13T10:58:15;10.0;;;8.0;;
22675;SDS011;12521;43.310;21.876;2023-07-13T11:03:16;10.0;;;8.0;;
22675;SDS011;12521;43.310;21.876;2023-07-13T11:08:13;12.0;;;8.0;;
22675;SDS011;12521;43.310;21.876;2023-07-13T11:13:55;12.0;;;8.0;;
22675;SDS011;12521;43.310;21.876;2023-07-13T11:18:36;13.0;;;9.0;;
22675;SDS011;12521;43.310;21.876;2023-07-13T11:23:30;13.0;;;9.0;;
22675;SDS011;12521;43.310;21.876;2023-07-13T11:28:20;14.0;;;10.0;;
22675;SDS011;12521;43.310;21.876;2023-07-13T11:33:15;14.0;;;10.0;;
22675;SDS011;12521;43.310;21.876;2023-07-13T11:37:58;16.0;;;11.0;;
22675;SDS011;12521;43.310;21.876;2023-07-13T11:42:38;16.0;;;11.0;;
22675;SDS011;12521;43.310;21.876;2023-07-13T11:47:19;18.0;;;12.0;;
22675;SDS011;12521;43.310;21.876;2023-07-13T11:52:00;18.0;;;12.0;;
22675;SDS011;12521;43.310;21.876;2023-07-13T11:56:40;20.0;;;12.0;;
22675;SDS011;12521;43.310;21.876;2023-07-13T12:01:22;20.0;;;12.0;;
22675;SDS011;12521;43.310;21.876;2023-07-13T12:06:26;16.0;;;11.0;;
22675;SDS011;12521;43.310;21.876;2023-07-13T12:11:17;16.0;;;11.0;;
22675;SDS011;12521;43.310;21.876;2023-07-13T12:15:56;12.0;;;10.0;;
22675;SDS011;12521;43.310;21.876;2023-07-13T12:20:38;12.0;;;10.0;;
22675;SDS011;12521;43.310;21.876;2023-07-13T12:25:17;13.0;;;10.0;;
22675;SDS011;12521;43.310;21.876;2023-07-13T12:30:23;13.0;;;10.0;;
22675;SDS011;12521;43.310;21.876;2023-07-13T12:35:16;14.0;;;10.0;;
22675;SDS011;12521;43.310;21.876;2023-07-13T12:39:54;14.0;;;10.0;;
22675;SDS011;12521;43.310;21.876;2023-07-13T12:44:32;13.0;;;10.0;;
22675;SDS011;12521;43.310;21.876;2023-07-13T12:49:13;13.0;;;10.0;;
22675;SDS011;12521;43.310;21.876;2023-07-13T12:53:58;13.0;;;10.0;;
22675;SDS011;12521;43.310;21.876;2023-07-13T12:59:00;12.0;;;9.0;;
22675;SDS011;12521;43.310;21.876;2023-07-13T13:03:47;12.0;;;9.0;;
22675;SDS011;12521;43.310;21.876;2023-07-13T13:08:31;11.0;;;9.0;;
22675;SDS011;12521;43.310;21.876;2023-07-13T13:13:12;11.0;;;9.0;;
22675;SDS011;12521;43.310;21.876;2023-07-13T13:17:48;10.0;;;9.0;;
22675;SDS011;12521;43.310;21.876;2023-07-13T13:22:24;10.0;;;9.0;;
22675;SDS011;12521;43.310;21.876;2023-07-13T13:27:02;11.0;;;10.0;;
22675;SDS011;12521;43.310;21.876;2023-07-13T13:31:41;11.0;;;10.0;;
22675;SDS011;12521;43.310;21.876;2023-07-13T13:36:22;12.0;;;10.0;;
22675;SDS011;12521;43.310;21.876;2023-07-13T13:40:59;12.0;;;10.0;;
22675;SDS011;12521;43.310;21.876;2023-07-13T13:45:35;12.0;;;10.0;;
22675;SDS011;12521;43.310;21.876;2023-07-13T13:50:15;12.0;;;10.0;;
22675;SDS011;12521;43.310;21.876;2023-07-13T13:54:58;12.0;;;10.0;;
22675;SDS011;12521;43.310;21.876;2023-07-13T13:59:34;12.0;;;10.0;;
22675;SDS011;12521;43.310;21.876;2023-07-13T14:04:16;12.0;;;10.0;;
22675;SDS011;12521;43.310;21.876;2023-07-13T14:08:58;13.0;;;10.0;;
22675;SDS011;12521;43.310;21.876;2023-07-13T14:13:42;13.0;;;10.0;;
22675;SDS011;12521;43.310;21.876;2023-07-13T14:18:26;14.0;;;9.0;;
22675;SDS011;12521;43.310;21.876;2023-07-13T14:23:04;14.0;;;9.0;;
22675;SDS011;12521;43.310;21.876;2023-07-13T14:27:43;16.0;;;10.0;;
22675;SDS011;12521;43.310;21.876;2023-07-13T14:32:54;16.0;;;10.0;;
22675;SDS011;12521;43.310;21.876;2023-07-13T14:37:31;17.0;;;11.0;;
22675;SDS011;12521;43.310;21.876;2023-07-13T14:42:10;17.0;;;11.0;;
22675;SDS011;12521;43.310;21.876;2023-07-13T14:46:48;17.0;;;10.0;;
22675;SDS011;12521;43.310;21.876;2023-07-13T14:51:29;17.0;;;10.0;;
22675;SDS011;12521;43.310;21.876;2023-07-13T14:56:11;17.0;;;10.0;;
22675;SDS011;12521;43.310;21.876;2023-07-13T15:00:49;17.0;;;10.0;;
22675;SDS011;12521;43.310;21.876;2023-07-13T15:05:28;14.0;;;10.0;;
22675;SDS011;12521;43.310;21.876;2023-07-13T15:10:15;14.0;;;10.0;;
22675;SDS011;12521;43.310;21.876;2023-07-13T15:15:05;12.0;;;9.0;;
22675;SDS011;12521;43.310;21.876;2023-07-13T15:19:44;12.0;;;9.0;;
22675;SDS011;12521;43.310;21.876;2023-07-13T15:24:21;12.0;;;9.0;;
22675;SDS011;12521;43.310;21.876;2023-07-13T15:28:57;13.0;;;10.0;;
22675;SDS011;12521;43.310;21.876;2023-07-13T15:33:34;13.0;;;10.0;;
22675;SDS011;12521;43.310;21.876;2023-07-13T15:38:16;14.0;;;10.0;;
22675;SDS011;12521;43.310;21.876;2023-07-13T15:42:59;14.0;;;10.0;;
22675;SDS011;12521;43.310;21.876;2023-07-13T15:47:36;16.0;;;12.0;;
22675;SDS011;12521;43.310;21.876;2023-07-13T15:52:17;16.0;;;12.0;;
22675;SDS011;12521;43.310;21.876;2023-07-13T15:57:01;19.0;;;13.0;;
22675;SDS011;12521;43.310;21.876;2023-07-13T16:01:45;19.0;;;13.0;;
22675;SDS011;12521;43.310;21.876;2023-07-13T16:06:26;14.0;;;11.0;;
22675;SDS011;12521;43.310;21.876;2023-07-13T16:11:18;14.0;;;11.0;;
22675;SDS011;12521;43.310;21.876;2023-07-13T16:16:09;10.0;;;9.0;;
22675;SDS011;12521;43.310;21.876;2023-07-13T16:20:49;10.0;;;9.0;;
22675;SDS011;12521;43.310;21.876;2023-07-13T16:25:26;11.0;;;9.0;;
22675;SDS011;12521;43.310;21.876;2023-07-13T16:30:12;11.0;;;9.0;;
22675;SDS011;12521;43.310;21.876;2023-07-13T16:34:58;12.0;;;9.0;;
22675;SDS011;12521;43.310;21.876;2023-07-13T16:39:35;12.0;;;9.0;;
22675;SDS011;12521;43.310;21.876;2023-07-13T16:44:13;12.0;;;9.0;;
22675;SDS011;12521;43.310;21.876;2023-07-13T16:48:56;13.0;;;9.0;;
22675;SDS011;12521;43.310;21.876;2023-07-13T16:53:33;13.0;;;9.0;;
22675;SDS011;12521;43.310;21.876;2023-07-13T16:58:09;14.0;;;9.0;;
22675;SDS011;12521;43.310;21.876;2023-07-13T17:02:47;14.0;;;9.0;;
22675;SDS011;12521;43.310;21.876;2023-07-13T17:07:25;14.0;;;10.0;;
22675;SDS011;12521;43.310;21.876;2023-07-13T17:12:04;14.0;;;10.0;;
22675;SDS011;12521;43.310;21.876;2023-07-13T17:16:47;14.0;;;10.0;;
22675;SDS011;12521;43.310;21.876;2023-07-13T17:21:32;14.0;;;10.0;;
22675;SDS011;12521;43.310;21.876;2023-07-13T17:26:09;14.0;;;10.0;;
22675;SDS011;12521;43.310;21.876;2023-07-13T17:30:49;14.0;;;10.0;;
22675;SDS011;12521;43.310;21.876;2023-07-13T17:35:37;13.0;;;10.0;;
22675;SDS011;12521;43.310;21.876;2023-07-13T17:40:15;13.0;;;10.0;;
22675;SDS011;12521;43.310;21.876;2023-07-13T17:44:53;13.0;;;10.0;;
22675;SDS011;12521;43.310;21.876;2023-07-13T17:49:30;13.0;;;10.0;;
22675;SDS011;12521;43.310;21.876;2023-07-13T17:54:13;13.0;;;10.0;;
22675;SDS011;12521;43.310;21.876;2023-07-13T17:58:53;13.0;;;10.0;;
22675;SDS011;12521;43.310;21.876;2023-07-13T18:03:30;13.0;;;10.0;;
22675;SDS011;12521;43.310;21.876;2023-07-13T18:08:22;13.0;;;10.0;;
22675;SDS011;12521;43.310;21.876;2023-07-13T18:13:06;13.0;;;10.0;;
22675;SDS011;12521;43.310;21.876;2023-07-13T18:17:48;13.0;;;11.0;;
22675;SDS011;12521;43.310;21.876;2023-07-13T18:22:26;13.0;;;11.0;;
22675;SDS011;12521;43.310;21.876;2023-07-13T18:27:03;15.0;;;11.0;;
22675;SDS011;12521;43.310;21.876;2023-07-13T18:31:42;15.0;;;11.0;;
22675;SDS011;12521;43.310;21.876;2023-07-13T18:36:21;17.0;;;11.0;;
22675;SDS011;12521;43.310;21.876;2023-07-13T18:40:59;17.0;;;11.0;;
22675;SDS011;12521;43.310;21.876;2023-07-13T18:45:35;16.0;;;10.0;;
22675;SDS011;12521;43.310;21.876;2023-07-13T18:50:15;16.0;;;10.0;;
22675;SDS011;12521;43.310;21.876;2023-07-13T18:55:14;14.0;;;10.0;;
22675;SDS011;12521;43.310;21.876;2023-07-13T18:59:57;14.0;;;10.0;;
22675;SDS011;12521;43.310;21.876;2023-07-13T19:04:33;14.0;;;10.0;;
22675;SDS011;12521;43.310;21.876;2023-07-13T19:09:11;16.0;;;12.0;;
22675;SDS011;12521;43.310;21.876;2023-07-13T19:13:48;16.0;;;12.0;;
22675;SDS011;12521;43.310;21.876;2023-07-13T19:18:25;17.0;;;13.0;;
22675;SDS011;12521;43.310;21.876;2023-07-13T19:23:05;17.0;;;13.0;;
22675;SDS011;12521;43.310;21.876;2023-07-13T19:28:27;18.0;;;12.0;;
22675;SDS011;12521;43.310;21.876;2023-07-13T19:33:16;18.0;;;12.0;;
22675;SDS011;12521;43.310;21.876;2023-07-13T19:37:53;18.0;;;12.0;;
22675;SDS011;12521;43.310;21.876;2023-07-13T19:42:30;18.0;;;12.0;;
22675;SDS011;12521;43.310;21.876;2023-07-13T19:47:11;18.0;;;12.0;;
22675;SDS011;12521;43.310;21.876;2023-07-13T19:51:53;18.0;;;12.0;;
22675;SDS011;12521;43.310;21.876;2023-07-13T19:56:30;19.0;;;12.0;;
22675;SDS011;12521;43.310;21.876;2023-07-13T20:01:06;19.0;;;12.0;;
22675;SDS011;12521;43.310;21.876;2023-07-13T20:05:44;19.0;;;12.0;;
22675;SDS011;12521;43.310;21.876;2023-07-13T20:10:23;19.0;;;12.0;;
22675;SDS011;12521;43.310;21.876;2023-07-13T20:15:14;19.0;;;12.0;;
22675;SDS011;12521;43.310;21.876;2023-07-13T20:20:20;19.0;;;12.0;;
22675;SDS011;12521;43.310;21.876;2023-07-13T20:25:17;19.0;;;14.0;;
22675;SDS011;12521;43.310;21.876;2023-07-13T20:30:09;19.0;;;14.0;;
22675;SDS011;12521;43.310;21.876;2023-07-13T20:34:48;19.0;;;15.0;;
22675;SDS011;12521;43.310;21.876;2023-07-13T20:39:25;19.0;;;15.0;;
22675;SDS011;12521;43.310;21.876;2023-07-13T20:44:02;19.0;;;15.0;;
22675;SDS011;12521;43.310;21.876;2023-07-13T20:48:41;20.0;;;14.0;;
22675;SDS011;12521;43.310;21.876;2023-07-13T20:53:21;20.0;;;14.0;;
22675;SDS011;12521;43.310;21.876;2023-07-13T20:57:57;20.0;;;12.0;;
22675;SDS011;12521;43.310;21.876;2023-07-13T21:02:33;20.0;;;12.0;;
22675;SDS011;12521;43.310;21.876;2023-07-13T21:07:18;20.0;;;12.0;;
22675;SDS011;12521;43.310;21.876;2023-07-13T21:11:59;20.0;;;12.0;;
22675;SDS011;12521;43.310;21.876;2023-07-13T21:16:35;19.0;;;13.0;;
22675;SDS011;12521;43.310;21.876;2023-07-13T21:21:16;19.0;;;13.0;;
22675;SDS011;12521;43.310;21.876;2023-07-13T21:26:04;18.0;;;12.0;;
22675;SDS011;12521;43.310;21.876;2023-07-13T21:30:44;18.0;;;12.0;;
22675;SDS011;12521;43.310;21.876;2023-07-13T21:35:30;16.0;;;12.0;;
22675;SDS011;12521;43.310;21.876;2023-07-13T21:40:19;16.0;;;12.0;;
22675;SDS011;12521;43.310;21.876;2023-07-13T21:45:19;16.0;;;12.0;;
22675;SDS011;12521;43.310;21.876;2023-07-13T21:50:04;16.0;;;12.0;;
22675;SDS011;12521;43.310;21.876;2023-07-13T21:54:44;16.0;;;12.0;;
22675;SDS011;12521;43.310;21.876;2023-07-13T21:59:24;15.0;;;12.0;;
22675;SDS011;12521;43.310;21.876;2023-07-13T22:04:11;15.0;;;12.0;;
22675;SDS011;12521;43.310;21.876;2023-07-13T22:08:59;18.0;;;12.0;;
22675;SDS011;12521;43.310;21.876;2023-07-13T22:13:35;18.0;;;12.0;;
22675;SDS011;12521;43.310;21.876;2023-07-13T22:18:16;20.0;;;12.0;;
22675;SDS011;12521;43.310;21.876;2023-07-13T22:22:58;20.0;;;12.0;;
22675;SDS011;12521;43.310;21.876;2023-07-13T22:27:35;18.0;;;12.0;;
22675;SDS011;12521;43.310;21.876;2023-07-13T22:32:12;18.0;;;12.0;;
22675;SDS011;12521;43.310;21.876;2023-07-13T22:36:49;16.0;;;12.0;;
22675;SDS011;12521;43.310;21.876;2023-07-13T22:41:26;16.0;;;12.0;;
22675;SDS011;12521;43.310;21.876;2023-07-13T22:46:03;18.0;;;13.0;;
22675;SDS011;12521;43.310;21.876;2023-07-13T22:50:58;18.0;;;13.0;;
22675;SDS011;12521;43.310;21.876;2023-07-13T22:55:34;21.0;;;14.0;;
22675;SDS011;12521;43.310;21.876;2023-07-13T23:00:17;21.0;;;14.0;;
22675;SDS011;12521;43.310;21.876;2023-07-13T23:04:56;18.0;;;13.0;;
22675;SDS011;12521;43.310;21.876;2023-07-13T23:09:33;18.0;;;13.0;;
22675;SDS011;12521;43.310;21.876;2023-07-13T23:14:09;18.0;;;13.0;;
22675;SDS011;12521;43.310;21.876;2023-07-13T23:18:47;16.0;;;12.0;;
22675;SDS011;12521;43.310;21.876;2023-07-13T23:23:26;16.0;;;12.0;;
22675;SDS011;12521;43.310;21.876;2023-07-13T23:28:03;16.0;;;12.0;;
22675;SDS011;12521;43.310;21.876;2023-07-13T23:32:40;16.0;;;12.0;;
22675;SDS011;12521;43.310;21.876;2023-07-13T23:37:17;16.0;;;11.0;;
22675;SDS011;12521;43.310;21.876;2023-07-13T23:41:53;16.0;;;11.0;;
22675;SDS011;12521;43.310;21.876;2023-07-13T23:46:40;16.0;;;11.0;;
22675;SDS011;12521;43.310;21.876;2023-07-13T23:51:28;16.0;;;11.0;;
22675;SDS011;12521;43.310;21.876;2023-07-13T23:56:17;15.0;;;11.0;;
